createdAt,value
2018-04-30T00:00:11.576Z,16.42
2018-04-30T00:01:11.534Z,16.26
2018-04-30T00:02:11.498Z,16.26
2018-04-30T00:03:11.452Z,16.14
2018-04-30T00:04:11.410Z,16.21
2018-04-30T00:05:11.364Z,16.21
2018-04-30T00:06:11.322Z,16.09
2018-04-30T00:07:11.282Z,16.14
2018-04-30T00:08:11.238Z,16.21
2018-04-30T00:09:11.193Z,16.22
2018-04-30T00:10:11.150Z,16.24
2018-04-30T00:11:11.107Z,16.21
2018-04-30T00:12:11.062Z,16.22
2018-04-30T00:13:11.023Z,16.29
2018-04-30T00:14:10.980Z,16.25
2018-04-30T00:15:10.957Z,16.25
2018-04-30T00:16:10.908Z,16.10
2018-04-30T00:17:10.854Z,16.09
2018-04-30T00:18:10.810Z,16.06
2018-04-30T00:19:10.770Z,15.99
2018-04-30T00:20:10.724Z,16.03
2018-04-30T00:21:10.681Z,16.09
2018-04-30T00:22:10.638Z,16.25
2018-04-30T00:23:10.596Z,16.25
2018-04-30T00:24:10.552Z,16.28
2018-04-30T00:25:10.511Z,16.37
2018-04-30T00:26:10.470Z,16.24
2018-04-30T00:27:10.425Z,16.28
2018-04-30T00:28:10.384Z,16.37
2018-04-30T00:29:10.347Z,16.44
2018-04-30T00:30:10.299Z,16.59
2018-04-30T00:31:10.265Z,16.49
2018-04-30T00:32:10.212Z,16.65
2018-04-30T00:33:10.170Z,16.64
2018-04-30T00:34:10.126Z,16.72
2018-04-30T00:35:10.088Z,16.67
2018-04-30T00:36:10.043Z,16.67
2018-04-30T00:37:10.009Z,16.65
2018-04-30T00:38:09.958Z,16.65
2018-04-30T00:39:09.916Z,16.49
2018-04-30T00:40:09.870Z,16.44
2018-04-30T00:41:09.828Z,16.44
2018-04-30T00:42:09.788Z,16.61
2018-04-30T00:43:09.743Z,16.58
2018-04-30T00:44:09.702Z,16.61
2018-04-30T00:45:09.657Z,16.54
2018-04-30T00:46:09.619Z,16.42
2018-04-30T00:47:09.576Z,16.39
2018-04-30T00:48:09.533Z,16.39
2018-04-30T00:49:09.497Z,16.37
2018-04-30T00:50:09.445Z,16.32
2018-04-30T00:51:09.400Z,16.24
2018-04-30T00:52:09.363Z,16.08
2018-04-30T00:53:09.317Z,16.14
2018-04-30T00:54:09.275Z,16.25
2018-04-30T00:55:09.233Z,16.06
2018-04-30T00:56:09.188Z,16.29
2018-04-30T00:57:09.161Z,16.18
2018-04-30T00:58:09.103Z,16.25
2018-04-30T00:59:09.060Z,16.34
2018-04-30T01:00:09.021Z,16.39
2018-04-30T01:01:08.981Z,16.36
2018-04-30T01:02:08.933Z,16.36
2018-04-30T01:03:08.888Z,16.34
2018-04-30T01:04:08.846Z,16.28
2018-04-30T01:05:08.835Z,16.28
2018-04-30T01:06:08.757Z,16.22
2018-04-30T01:07:08.717Z,16.22
2018-04-30T01:08:08.673Z,16.25
2018-04-30T01:09:08.635Z,16.18
2018-04-30T01:10:08.588Z,16.18
2018-04-30T01:11:08.544Z,16.17
2018-04-30T01:12:08.503Z,16.13
2018-04-30T01:13:08.468Z,16.08
2018-04-30T01:14:08.419Z,16.16
2018-04-30T01:15:08.374Z,16.13
2018-04-30T01:16:08.329Z,16.10
2018-04-30T01:17:08.286Z,16.08
2018-04-30T01:18:08.244Z,16.00
2018-04-30T01:19:08.200Z,16.03
2018-04-30T01:20:08.158Z,16.09
2018-04-30T01:21:08.117Z,16.13
2018-04-30T01:22:08.068Z,16.13
2018-04-30T01:23:08.027Z,16.08
2018-04-30T01:24:07.985Z,15.99
2018-04-30T01:25:07.945Z,16.06
2018-04-30T01:26:07.900Z,16.00
2018-04-30T01:27:07.854Z,16.02
2018-04-30T01:28:07.812Z,16.08
2018-04-30T01:29:07.776Z,16.08
2018-04-30T01:30:07.728Z,15.99
2018-04-30T01:31:07.694Z,15.96
2018-04-30T01:32:07.641Z,15.91
2018-04-30T01:33:07.598Z,15.93
2018-04-30T01:34:07.555Z,15.85
2018-04-30T01:35:07.510Z,15.87
2018-04-30T01:36:07.469Z,15.83
2018-04-30T01:37:07.425Z,15.76
2018-04-30T01:38:07.383Z,15.73
2018-04-30T01:39:07.343Z,15.68
2018-04-30T01:40:07.335Z,15.66
2018-04-30T01:41:07.254Z,15.70
2018-04-30T01:42:07.215Z,15.66
2018-04-30T01:43:07.173Z,15.68
2018-04-30T01:44:07.127Z,15.70
2018-04-30T01:45:07.085Z,15.69
2018-04-30T01:46:07.041Z,15.65
2018-04-30T01:47:07.002Z,15.70
2018-04-30T01:48:06.952Z,15.66
2018-04-30T01:49:06.909Z,15.68
2018-04-30T01:50:06.867Z,15.69
2018-04-30T01:51:06.824Z,15.76
2018-04-30T01:52:06.782Z,15.87
2018-04-30T01:53:06.737Z,15.87
2018-04-30T01:54:06.705Z,15.84
2018-04-30T01:55:06.653Z,15.76
2018-04-30T01:56:06.614Z,15.69
2018-04-30T01:57:06.564Z,15.56
2018-04-30T01:58:06.522Z,15.50
2018-04-30T01:59:06.479Z,15.48
2018-04-30T02:00:06.437Z,15.58
2018-04-30T02:01:06.397Z,15.44
2018-04-30T02:02:06.354Z,15.50
2018-04-30T02:03:10.966Z,15.52
2018-04-30T02:04:06.262Z,15.51
2018-04-30T02:05:06.221Z,15.43
2018-04-30T02:06:06.178Z,15.47
2018-04-30T02:07:06.133Z,15.43
2018-04-30T02:08:06.090Z,15.44
2018-04-30T02:09:06.050Z,15.45
2018-04-30T02:10:06.007Z,15.52
2018-04-30T02:11:05.963Z,15.48
2018-04-30T02:12:05.916Z,15.60
2018-04-30T02:13:05.875Z,15.56
2018-04-30T02:14:05.830Z,15.44
2018-04-30T02:15:05.787Z,15.52
2018-04-30T02:16:05.742Z,15.48
2018-04-30T02:17:05.700Z,15.63
2018-04-30T02:18:05.659Z,15.63
2018-04-30T02:19:05.614Z,15.87
2018-04-30T02:20:05.579Z,15.73
2018-04-30T02:21:05.535Z,15.73
2018-04-30T02:22:05.561Z,15.96
2018-04-30T02:23:05.443Z,16.13
2018-04-30T02:24:05.398Z,16.14
2018-04-30T02:25:05.354Z,16.16
2018-04-30T02:26:05.312Z,16.18
2018-04-30T02:27:05.272Z,16.17
2018-04-30T02:28:05.221Z,16.26
2018-04-30T02:29:05.183Z,16.06
2018-04-30T02:30:05.135Z,16.18
2018-04-30T02:31:05.096Z,16.08
2018-04-30T02:32:05.048Z,16.08
2018-04-30T02:33:05.007Z,16.02
2018-04-30T02:34:04.964Z,16.02
2018-04-30T02:35:04.920Z,15.95
2018-04-30T02:36:04.875Z,15.96
2018-04-30T02:37:04.833Z,15.96
2018-04-30T02:38:04.789Z,15.98
2018-04-30T02:39:04.750Z,16.03
2018-04-30T02:40:04.703Z,16.00
2018-04-30T02:41:04.667Z,15.98
2018-04-30T02:42:04.625Z,15.98
2018-04-30T02:43:04.572Z,16.05
2018-04-30T02:44:04.528Z,15.93
2018-04-30T02:45:04.485Z,16.03
2018-04-30T02:46:04.439Z,16.16
2018-04-30T02:47:04.395Z,16.06
2018-04-30T02:48:04.360Z,16.17
2018-04-30T02:49:04.312Z,16.17
2018-04-30T02:50:04.266Z,16.24
2018-04-30T02:51:04.228Z,16.28
2018-04-30T02:52:04.182Z,16.24
2018-04-30T02:53:04.142Z,16.24
2018-04-30T02:54:04.096Z,16.18
2018-04-30T02:55:04.049Z,16.17
2018-04-30T02:56:04.007Z,16.25
2018-04-30T02:57:03.964Z,16.37
2018-04-30T02:58:03.920Z,16.46
2018-04-30T02:59:03.875Z,16.80
2018-04-30T03:00:03.835Z,17.14
2018-04-30T03:01:03.791Z,17.30
2018-04-30T03:02:03.751Z,17.24
2018-04-30T03:03:03.702Z,17.10
2018-04-30T03:04:03.662Z,16.90
2018-04-30T03:05:03.615Z,16.77
2018-04-30T03:06:03.574Z,16.59
2018-04-30T03:07:03.524Z,16.47
2018-04-30T03:08:03.486Z,16.29
2018-04-30T03:09:03.440Z,16.26
2018-04-30T03:10:03.398Z,16.14
2018-04-30T03:11:03.353Z,16.08
2018-04-30T03:12:03.310Z,16.13
2018-04-30T03:13:03.272Z,16.09
2018-04-30T03:14:03.224Z,16.08
2018-04-30T03:15:03.187Z,15.99
2018-04-30T03:16:03.139Z,16.06
2018-04-30T03:17:03.094Z,15.95
2018-04-30T03:18:03.050Z,15.93
2018-04-30T03:19:03.005Z,15.88
2018-04-30T03:20:02.961Z,15.83
2018-04-30T03:21:02.917Z,15.88
2018-04-30T03:22:02.874Z,15.85
2018-04-30T03:23:02.830Z,15.87
2018-04-30T03:24:02.787Z,15.76
2018-04-30T03:25:02.755Z,15.77
2018-04-30T03:26:02.699Z,15.73
2018-04-30T03:27:02.659Z,15.68
2018-04-30T03:28:02.612Z,15.72
2018-04-30T03:29:02.568Z,15.59
2018-04-30T03:30:02.525Z,15.56
2018-04-30T03:31:02.481Z,15.56
2018-04-30T03:32:02.438Z,15.63
2018-04-30T03:33:02.394Z,15.54
2018-04-30T03:34:02.350Z,15.58
2018-04-30T03:35:02.308Z,15.56
2018-04-30T03:36:02.262Z,15.51
2018-04-30T03:37:02.219Z,15.51
2018-04-30T03:38:02.176Z,15.54
2018-04-30T03:39:02.131Z,15.62
2018-04-30T03:40:02.078Z,15.51
2018-04-30T03:41:02.041Z,15.51
2018-04-30T03:42:02.000Z,15.50
2018-04-30T03:43:01.956Z,15.50
2018-04-30T03:44:01.919Z,15.50
2018-04-30T03:45:01.917Z,15.43
2018-04-30T03:46:01.826Z,15.45
2018-04-30T03:47:01.779Z,15.48
2018-04-30T03:48:01.735Z,15.43
2018-04-30T03:49:01.693Z,15.33
2018-04-30T03:50:01.648Z,15.22
2018-04-30T03:51:01.607Z,15.19
2018-04-30T03:52:01.559Z,15.01
2018-04-30T03:53:01.515Z,15.07
2018-04-30T03:54:01.470Z,15.05
2018-04-30T03:55:01.424Z,15.03
2018-04-30T03:56:01.383Z,15.04
2018-04-30T03:57:01.340Z,14.93
2018-04-30T03:58:01.295Z,14.96
2018-04-30T03:59:01.250Z,14.97
2018-04-30T04:00:01.205Z,14.90
2018-04-30T04:01:01.162Z,14.90
2018-04-30T04:02:01.128Z,14.78
2018-04-30T04:03:01.098Z,14.87
2018-04-30T04:04:01.049Z,14.85
2018-04-30T04:05:00.982Z,14.79
2018-04-30T04:06:00.943Z,14.74
2018-04-30T04:07:00.897Z,14.71
2018-04-30T04:08:00.850Z,14.56
2018-04-30T04:09:00.812Z,14.46
2018-04-30T04:10:00.764Z,14.46
2018-04-30T04:11:00.716Z,14.38
2018-04-30T04:12:00.672Z,14.30
2018-04-30T04:13:00.629Z,14.31
2018-04-30T04:14:00.588Z,14.27
2018-04-30T04:15:00.541Z,14.33
2018-04-30T04:16:00.491Z,14.19
2018-04-30T04:17:00.453Z,14.13
2018-04-30T04:18:00.409Z,14.12
2018-04-30T04:19:00.362Z,14.03
2018-04-30T04:20:00.320Z,14.03
2018-04-30T04:21:00.275Z,14.00
2018-04-30T04:22:00.230Z,14.00
2018-04-30T04:23:00.189Z,13.90
2018-04-30T04:24:00.142Z,13.96
2018-04-30T04:25:00.093Z,13.83
2018-04-30T04:26:00.053Z,13.86
2018-04-30T04:27:00.007Z,13.83
2018-04-30T04:27:59.968Z,13.72
2018-04-30T04:28:59.914Z,13.64
2018-04-30T04:29:59.874Z,13.58
2018-04-30T04:30:59.825Z,13.39
2018-04-30T04:31:59.780Z,13.40
2018-04-30T04:32:59.736Z,13.40
2018-04-30T04:33:59.690Z,13.38
2018-04-30T04:34:59.644Z,13.29
2018-04-30T04:35:59.600Z,13.27
2018-04-30T04:36:59.554Z,13.09
2018-04-30T04:37:59.508Z,13.08
2018-04-30T04:38:59.456Z,13.04
2018-04-30T04:39:59.419Z,12.98
2018-04-30T04:40:59.375Z,12.88
2018-04-30T04:41:59.328Z,12.79
2018-04-30T04:42:59.282Z,12.81
2018-04-30T04:43:59.237Z,12.79
2018-04-30T04:44:59.192Z,12.77
2018-04-30T04:45:59.146Z,12.81
2018-04-30T04:46:59.101Z,12.80
2018-04-30T04:47:59.055Z,12.77
2018-04-30T04:48:59.012Z,12.71
2018-04-30T04:49:58.964Z,12.68
2018-04-30T04:50:58.923Z,12.63
2018-04-30T04:51:58.876Z,12.68
2018-04-30T04:52:58.836Z,12.58
2018-04-30T04:53:58.784Z,12.55
2018-04-30T04:54:58.740Z,12.44
2018-04-30T04:55:58.690Z,12.30
2018-04-30T04:56:58.645Z,12.41
2018-04-30T04:57:58.601Z,12.43
2018-04-30T04:58:58.553Z,12.38
2018-04-30T04:59:58.507Z,12.43
2018-04-30T05:00:58.462Z,12.32
2018-04-30T05:01:58.421Z,12.26
2018-04-30T05:02:58.372Z,12.28
2018-04-30T05:03:58.326Z,12.33
2018-04-30T05:04:58.280Z,12.28
2018-04-30T05:05:58.229Z,12.33
2018-04-30T05:06:58.191Z,12.17
2018-04-30T05:07:58.148Z,12.22
2018-04-30T05:08:58.098Z,12.23
2018-04-30T05:09:58.049Z,12.07
2018-04-30T05:10:58.062Z,11.88
2018-04-30T05:11:57.957Z,12.05
2018-04-30T05:12:57.919Z,11.93
2018-04-30T05:13:57.866Z,11.91
2018-04-30T05:14:57.820Z,11.89
2018-04-30T05:15:57.782Z,11.73
2018-04-30T05:16:57.731Z,11.70
2018-04-30T05:17:57.684Z,11.66
2018-04-30T05:18:57.636Z,11.56
2018-04-30T05:19:57.591Z,11.48
2018-04-30T05:20:57.597Z,11.43
2018-04-30T05:21:57.502Z,11.46
2018-04-30T05:22:57.455Z,11.43
2018-04-30T05:23:57.404Z,11.41
2018-04-30T05:24:57.361Z,11.49
2018-04-30T05:25:57.327Z,11.41
2018-04-30T05:26:57.273Z,11.45
2018-04-30T05:27:57.225Z,11.34
2018-04-30T05:28:57.175Z,11.36
2018-04-30T05:29:57.133Z,11.36
2018-04-30T05:30:57.085Z,11.33
2018-04-30T05:31:57.039Z,11.33
2018-04-30T05:32:56.995Z,11.37
2018-04-30T05:33:57.023Z,11.36
2018-04-30T05:34:56.900Z,11.34
2018-04-30T05:35:56.859Z,11.27
2018-04-30T05:36:56.808Z,11.18
2018-04-30T05:37:56.765Z,11.18
2018-04-30T05:38:56.713Z,11.18
2018-04-30T05:39:56.674Z,11.13
2018-04-30T05:40:56.931Z,11.08
2018-04-30T05:41:56.581Z,11.04
2018-04-30T05:42:56.531Z,11.05
2018-04-30T05:43:56.565Z,11.05
2018-04-30T05:44:56.452Z,11.09
2018-04-30T05:45:56.831Z,10.98
2018-04-30T05:46:56.496Z,10.94
2018-04-30T05:47:56.319Z,10.82
2018-04-30T05:48:56.256Z,10.73
2018-04-30T05:49:56.206Z,10.78
2018-04-30T05:50:56.909Z,10.70
2018-04-30T05:51:56.278Z,10.65
2018-04-30T05:52:56.081Z,10.57
2018-04-30T05:53:56.031Z,10.58
2018-04-30T05:54:56.133Z,10.42
2018-04-30T05:55:55.934Z,10.42
2018-04-30T05:56:55.880Z,10.42
2018-04-30T05:57:55.836Z,10.38
2018-04-30T05:58:55.792Z,10.42
2018-04-30T05:59:55.744Z,10.36
2018-04-30T06:00:55.699Z,10.21
2018-04-30T06:01:55.647Z,10.20
2018-04-30T06:02:55.600Z,10.02
2018-04-30T06:03:55.547Z,10.02
2018-04-30T06:04:55.508Z,10.03
2018-04-30T06:05:55.458Z,10.03
2018-04-30T06:06:55.527Z,9.90
2018-04-30T06:07:55.373Z,9.98
2018-04-30T06:08:55.328Z,9.87
2018-04-30T06:09:55.274Z,9.94
2018-04-30T06:10:55.227Z,9.88
2018-04-30T06:11:55.198Z,9.83
2018-04-30T06:12:55.133Z,9.83
2018-04-30T06:13:55.083Z,9.83
2018-04-30T06:14:55.039Z,9.87
2018-04-30T06:15:54.996Z,10.02
2018-04-30T06:16:55.057Z,10.03
2018-04-30T06:17:54.897Z,10.02
2018-04-30T06:18:54.858Z,10.01
2018-04-30T06:19:54.802Z,9.91
2018-04-30T06:20:54.758Z,9.90
2018-04-30T06:21:54.718Z,10.01
2018-04-30T06:22:54.660Z,10.02
2018-04-30T06:23:54.620Z,10.01
2018-04-30T06:24:54.562Z,10.08
2018-04-30T06:25:54.521Z,10.05
2018-04-30T06:26:54.567Z,10.03
2018-04-30T06:27:54.429Z,10.03
2018-04-30T06:28:54.378Z,9.96
2018-04-30T06:29:54.332Z,9.96
2018-04-30T06:30:54.290Z,9.99
2018-04-30T06:31:54.238Z,10.03
2018-04-30T06:32:54.191Z,9.99
2018-04-30T06:33:54.148Z,10.09
2018-04-30T06:34:54.099Z,10.16
2018-04-30T06:35:54.072Z,10.03
2018-04-30T06:36:54.011Z,10.05
2018-04-30T06:37:53.958Z,10.02
2018-04-30T06:38:53.910Z,10.03
2018-04-30T06:39:53.862Z,9.98
2018-04-30T06:40:53.823Z,10.12
2018-04-30T06:41:53.769Z,9.98
2018-04-30T06:42:53.723Z,10.03
2018-04-30T06:43:53.676Z,9.99
2018-04-30T06:45:00.421Z,9.90
2018-04-30T06:45:53.632Z,9.94
2018-04-30T06:46:53.539Z,9.99
2018-04-30T06:47:53.488Z,9.98
2018-04-30T06:48:53.446Z,10.02
2018-04-30T06:49:53.399Z,10.12
2018-04-30T06:50:53.350Z,9.93
2018-04-30T06:51:53.302Z,9.99
2018-04-30T06:52:53.258Z,10.05
2018-04-30T06:53:53.207Z,10.14
2018-04-30T06:54:53.160Z,10.05
2018-04-30T06:55:53.119Z,10.02
2018-04-30T06:56:53.072Z,10.02
2018-04-30T06:57:53.018Z,10.09
2018-04-30T06:58:52.975Z,10.05
2018-04-30T06:59:52.923Z,10.03
2018-04-30T07:00:52.881Z,10.05
2018-04-30T07:01:52.835Z,9.93
2018-04-30T07:02:52.934Z,9.93
2018-04-30T07:03:52.741Z,9.87
2018-04-30T07:04:52.695Z,9.91
2018-04-30T07:05:52.735Z,9.94
2018-04-30T07:06:52.601Z,10.05
2018-04-30T07:07:52.556Z,10.01
2018-04-30T07:08:52.519Z,10.05
2018-04-30T07:09:52.465Z,10.03
2018-04-30T07:10:52.414Z,10.02
2018-04-30T07:11:52.368Z,10.03
2018-04-30T07:12:52.327Z,10.08
2018-04-30T07:13:52.275Z,10.03
2018-04-30T07:14:52.229Z,10.01
2018-04-30T07:15:52.181Z,10.02
2018-04-30T07:16:52.218Z,9.96
2018-04-30T07:17:52.091Z,9.93
2018-04-30T07:18:52.046Z,9.90
2018-04-30T07:19:51.994Z,9.90
2018-04-30T07:20:51.950Z,9.99
2018-04-30T07:21:51.901Z,10.03
2018-04-30T07:22:51.856Z,9.99
2018-04-30T07:23:51.905Z,9.98
2018-04-30T07:24:51.761Z,10.03
2018-04-30T07:25:51.717Z,9.94
2018-04-30T07:26:51.671Z,10.01
2018-04-30T07:27:51.688Z,10.01
2018-04-30T07:28:51.570Z,10.06
2018-04-30T07:29:51.547Z,10.09
2018-04-30T07:30:51.488Z,10.14
2018-04-30T07:32:12.430Z,10.26
2018-04-30T07:32:51.388Z,10.30
2018-04-30T07:33:51.351Z,10.35
2018-04-30T07:34:51.296Z,10.41
2018-04-30T07:35:51.248Z,10.49
2018-04-30T07:36:51.239Z,10.64
2018-04-30T07:37:51.156Z,10.64
2018-04-30T07:38:51.120Z,10.67
2018-04-30T07:39:51.062Z,10.83
2018-04-30T07:40:51.016Z,10.91
2018-04-30T07:41:50.971Z,10.98
2018-04-30T07:42:50.925Z,10.97
2018-04-30T07:43:50.879Z,11.08
2018-04-30T07:44:50.833Z,11.18
2018-04-30T07:45:50.786Z,11.33
2018-04-30T07:46:50.744Z,11.25
2018-04-30T07:47:50.695Z,11.23
2018-04-30T07:48:50.672Z,11.20
2018-04-30T07:49:50.754Z,11.30
2018-04-30T07:50:50.565Z,11.31
2018-04-30T07:51:50.509Z,11.16
2018-04-30T07:52:50.460Z,11.30
2018-04-30T07:53:50.419Z,11.19
2018-04-30T07:54:50.372Z,11.09
2018-04-30T07:55:50.341Z,11.16
2018-04-30T07:56:50.283Z,11.19
2018-04-30T07:57:50.238Z,11.03
2018-04-30T07:58:50.257Z,10.97
2018-04-30T07:59:50.553Z,11.01
2018-04-30T08:00:50.097Z,11.16
2018-04-30T08:01:50.057Z,11.51
2018-04-30T08:02:50.009Z,11.80
2018-04-30T08:03:49.963Z,11.97
2018-04-30T08:04:49.916Z,11.97
2018-04-30T08:05:49.876Z,11.91
2018-04-30T08:06:49.826Z,12.10
2018-04-30T08:07:49.783Z,12.04
2018-04-30T08:08:49.738Z,12.15
2018-04-30T08:09:49.696Z,12.25
2018-04-30T08:10:49.647Z,12.43
2018-04-30T08:11:49.603Z,12.61
2018-04-30T08:12:49.559Z,12.65
2018-04-30T08:13:49.514Z,12.77
2018-04-30T08:14:49.550Z,12.81
2018-04-30T08:16:20.938Z,12.88
2018-04-30T08:16:49.379Z,12.83
2018-04-30T08:17:49.334Z,12.93
2018-04-30T08:18:49.290Z,13.19
2018-04-30T08:19:49.246Z,13.26
2018-04-30T08:20:49.209Z,13.40
2018-04-30T08:22:24.946Z,12.93
2018-04-30T08:22:49.112Z,12.81
2018-04-30T08:23:49.069Z,12.99
2018-04-30T08:24:49.023Z,12.99
2018-04-30T08:25:48.976Z,12.73
2018-04-30T08:26:48.947Z,13.11
2018-04-30T08:27:48.890Z,13.38
2018-04-30T08:28:48.848Z,13.30
2018-04-30T08:29:48.806Z,13.47
2018-04-30T08:30:48.757Z,13.98
2018-04-30T08:31:48.720Z,13.93
2018-04-30T08:32:48.671Z,13.76
2018-04-30T08:33:48.640Z,13.63
2018-04-30T08:34:48.581Z,13.35
2018-04-30T08:35:48.540Z,13.14
2018-04-30T08:36:48.499Z,13.23
2018-04-30T08:37:48.453Z,13.80
2018-04-30T08:38:48.410Z,14.21
2018-04-30T08:39:48.370Z,14.41
2018-04-30T08:40:48.321Z,14.70
2018-04-30T08:41:48.281Z,14.70
2018-04-30T08:42:48.235Z,14.73
2018-04-30T08:43:48.196Z,14.28
2018-04-30T08:44:48.148Z,13.96
2018-04-30T08:45:48.105Z,13.63
2018-04-30T08:46:48.144Z,13.32
2018-04-30T08:47:48.020Z,13.24
2018-04-30T08:48:47.973Z,13.13
2018-04-30T08:49:47.935Z,13.16
2018-04-30T08:50:47.888Z,13.17
2018-04-30T08:51:47.848Z,13.54
2018-04-30T08:52:47.797Z,13.49
2018-04-30T08:53:47.761Z,13.45
2018-04-30T08:54:47.718Z,13.65
2018-04-30T08:55:47.673Z,14.03
2018-04-30T08:56:47.631Z,14.27
2018-04-30T08:57:47.657Z,14.18
2018-04-30T08:58:47.546Z,14.19
2018-04-30T08:59:47.501Z,14.28
2018-04-30T09:00:47.465Z,14.36
2018-04-30T09:01:47.420Z,14.44
2018-04-30T09:02:47.374Z,14.44
2018-04-30T09:03:47.325Z,14.55
2018-04-30T09:04:47.287Z,14.33
2018-04-30T09:05:47.243Z,14.36
2018-04-30T09:06:47.198Z,14.33
2018-04-30T09:07:47.791Z,14.19
2018-04-30T09:08:47.388Z,14.12
2018-04-30T09:09:47.160Z,14.38
2018-04-30T09:10:47.756Z,14.40
2018-04-30T09:11:46.981Z,14.34
2018-04-30T09:12:46.940Z,14.31
2018-04-30T09:13:46.894Z,14.18
2018-04-30T09:14:47.244Z,14.04
2018-04-30T09:15:46.892Z,14.16
2018-04-30T09:16:46.882Z,14.16
2018-04-30T09:17:46.765Z,13.94
2018-04-30T09:18:47.457Z,14.09
2018-04-30T09:19:47.310Z,14.26
2018-04-30T09:20:46.775Z,14.41
2018-04-30T09:21:46.574Z,14.48
2018-04-30T09:22:46.509Z,14.61
2018-04-30T09:23:46.655Z,14.95
2018-04-30T09:24:46.425Z,14.67
2018-04-30T09:25:46.607Z,14.41
2018-04-30T09:26:46.334Z,14.45
2018-04-30T09:27:46.284Z,14.51
2018-04-30T09:28:46.664Z,14.41
2018-04-30T09:29:46.205Z,14.52
2018-04-30T09:30:46.542Z,14.56
2018-04-30T09:31:46.123Z,14.61
2018-04-30T09:32:46.184Z,14.74
2018-04-30T09:33:46.055Z,14.78
2018-04-30T09:34:46.308Z,14.55
2018-04-30T09:35:45.954Z,14.41
2018-04-30T09:36:46.108Z,14.44
2018-04-30T09:37:46.007Z,14.21
2018-04-30T09:38:46.497Z,14.08
2018-04-30T09:39:45.819Z,14.13
2018-04-30T09:40:46.141Z,14.21
2018-04-30T09:41:46.083Z,14.13
2018-04-30T09:42:46.018Z,14.28
2018-04-30T09:43:45.600Z,14.34
2018-04-30T09:44:46.898Z,14.44
2018-04-30T09:45:45.822Z,14.53
2018-04-30T09:46:45.463Z,14.30
2018-04-30T09:47:45.708Z,14.30
2018-04-30T09:48:45.819Z,14.40
2018-04-30T09:49:46.486Z,14.33
2018-04-30T09:50:45.688Z,14.33
2018-04-30T09:51:45.888Z,14.28
2018-04-30T09:52:46.263Z,14.21
2018-04-30T09:53:45.161Z,14.34
2018-04-30T09:54:46.071Z,14.58
2018-04-30T09:55:45.078Z,14.78
2018-04-30T09:56:45.540Z,14.82
2018-04-30T09:57:45.060Z,14.78
2018-04-30T09:58:44.944Z,14.83
2018-04-30T09:59:45.091Z,14.58
2018-04-30T10:00:44.857Z,14.49
2018-04-30T10:01:44.808Z,14.49
2018-04-30T10:02:44.767Z,14.44
2018-04-30T10:03:45.528Z,14.45
2018-04-30T10:04:44.711Z,14.38
2018-04-30T10:05:44.639Z,14.40
2018-04-30T10:06:45.423Z,14.55
2018-04-30T10:07:46.454Z,14.53
2018-04-30T10:09:05.502Z,14.61
2018-04-30T10:09:45.025Z,14.66
2018-04-30T10:10:44.520Z,14.61
2018-04-30T10:11:44.386Z,14.70
2018-04-30T10:12:44.331Z,14.95
2018-04-30T10:13:44.404Z,15.12
2018-04-30T10:14:44.929Z,15.17
2018-04-30T10:15:44.198Z,15.47
2018-04-30T10:16:44.155Z,15.51
2018-04-30T10:17:44.614Z,15.47
2018-04-30T10:18:44.073Z,15.36
2018-04-30T10:19:44.192Z,15.30
2018-04-30T10:20:43.977Z,15.11
2018-04-30T10:21:43.938Z,15.03
2018-04-30T10:22:44.041Z,14.99
2018-04-30T10:23:43.918Z,14.93
2018-04-30T10:24:43.804Z,14.90
2018-04-30T10:25:43.770Z,14.92
2018-04-30T10:26:43.718Z,14.86
2018-04-30T10:27:43.678Z,14.87
2018-04-30T10:28:43.631Z,14.90
2018-04-30T10:29:43.589Z,14.83
2018-04-30T10:30:43.551Z,14.95
2018-04-30T10:31:43.569Z,15.10
2018-04-30T10:32:43.454Z,15.32
2018-04-30T10:33:43.506Z,15.50
2018-04-30T10:34:43.371Z,15.70
2018-04-30T10:35:43.438Z,15.96
2018-04-30T10:36:43.974Z,16.05
2018-04-30T10:37:43.416Z,15.98
2018-04-30T10:38:43.199Z,16.21
2018-04-30T10:39:43.160Z,16.08
2018-04-30T10:40:43.322Z,15.99
2018-04-30T10:41:43.201Z,16.13
2018-04-30T10:42:43.026Z,16.09
2018-04-30T10:43:42.983Z,16.05
2018-04-30T10:44:43.238Z,16.06
2018-04-30T10:45:43.177Z,16.06
2018-04-30T10:46:42.849Z,16.13
2018-04-30T10:47:42.811Z,16.18
2018-04-30T10:48:42.775Z,16.10
2018-04-30T10:49:42.744Z,16.34
2018-04-30T10:50:42.688Z,16.36
2018-04-30T10:51:42.704Z,16.39
2018-04-30T10:52:42.600Z,16.54
2018-04-30T10:53:42.559Z,16.74
2018-04-30T10:54:42.529Z,16.76
2018-04-30T10:55:42.493Z,16.40
2018-04-30T10:56:42.428Z,16.47
2018-04-30T10:57:42.379Z,16.77
2018-04-30T10:58:42.343Z,17.12
2018-04-30T10:59:42.300Z,17.34
2018-04-30T11:00:42.259Z,17.22
2018-04-30T11:01:42.218Z,17.10
2018-04-30T11:02:42.178Z,16.88
2018-04-30T11:03:42.132Z,16.69
2018-04-30T11:04:42.096Z,16.47
2018-04-30T11:05:42.050Z,16.46
2018-04-30T11:06:42.007Z,16.59
2018-04-30T11:07:41.960Z,16.59
2018-04-30T11:08:41.921Z,16.65
2018-04-30T11:09:41.880Z,16.82
2018-04-30T11:10:41.837Z,16.74
2018-04-30T11:11:41.791Z,16.67
2018-04-30T11:12:41.752Z,16.67
2018-04-30T11:13:41.714Z,16.72
2018-04-30T11:14:41.672Z,16.73
2018-04-30T11:15:41.630Z,16.94
2018-04-30T11:16:41.585Z,16.99
2018-04-30T11:17:41.543Z,16.99
2018-04-30T11:18:41.499Z,16.94
2018-04-30T11:19:41.457Z,16.99
2018-04-30T11:20:41.416Z,17.41
2018-04-30T11:21:41.377Z,17.56
2018-04-30T11:22:41.339Z,17.62
2018-04-30T11:23:41.291Z,17.37
2018-04-30T11:24:41.250Z,17.24
2018-04-30T11:25:41.207Z,17.38
2018-04-30T11:26:41.161Z,17.69
2018-04-30T11:27:41.190Z,17.90
2018-04-30T11:28:41.085Z,18.21
2018-04-30T11:29:41.039Z,18.51
2018-04-30T11:30:40.997Z,18.67
2018-04-30T11:31:40.955Z,18.94
2018-04-30T11:32:40.912Z,19.12
2018-04-30T11:33:40.889Z,18.97
2018-04-30T11:34:40.828Z,18.85
2018-04-30T11:35:40.788Z,18.71
2018-04-30T11:36:40.745Z,18.82
2018-04-30T11:37:40.713Z,18.41
2018-04-30T11:38:40.662Z,18.08
2018-04-30T11:39:40.657Z,17.30
2018-04-30T11:40:40.584Z,17.24
2018-04-30T11:41:40.545Z,16.98
2018-04-30T11:42:40.509Z,16.99
2018-04-30T11:43:41.743Z,16.91
2018-04-30T11:44:40.427Z,16.69
2018-04-30T11:45:40.437Z,16.64
2018-04-30T11:46:40.394Z,16.65
2018-04-30T11:47:40.285Z,16.91
2018-04-30T11:48:40.242Z,16.92
2018-04-30T11:49:40.210Z,16.88
2018-04-30T11:50:40.277Z,17.01
2018-04-30T11:51:40.122Z,17.10
2018-04-30T11:52:40.082Z,17.01
2018-04-30T11:53:40.041Z,17.22
2018-04-30T11:54:39.995Z,17.32
2018-04-30T11:55:39.958Z,17.76
2018-04-30T11:56:39.965Z,17.90
2018-04-30T11:57:39.882Z,18.08
2018-04-30T11:58:39.837Z,18.13
2018-04-30T11:59:39.787Z,18.08
2018-04-30T12:00:39.765Z,18.20
2018-04-30T12:01:39.742Z,18.05
2018-04-30T12:02:39.663Z,18.01
2018-04-30T12:03:39.624Z,18.12
2018-04-30T12:04:39.580Z,18.11
2018-04-30T12:05:39.540Z,17.91
2018-04-30T12:06:39.497Z,17.91
2018-04-30T12:07:39.456Z,18.18
2018-04-30T12:08:39.415Z,18.36
2018-04-30T12:09:39.372Z,18.54
2018-04-30T12:10:39.333Z,18.71
2018-04-30T12:11:44.000Z,18.41
2018-04-30T12:12:39.255Z,18.21
2018-04-30T12:13:39.264Z,18.39
2018-04-30T12:14:39.174Z,18.26
2018-04-30T12:15:39.125Z,18.27
2018-04-30T12:16:39.120Z,18.51
2018-04-30T12:17:39.044Z,18.66
2018-04-30T12:18:39.004Z,18.86
2018-04-30T12:19:38.955Z,19.08
2018-04-30T12:20:38.920Z,19.07
2018-04-30T12:21:38.878Z,19.08
2018-04-30T12:22:38.839Z,19.09
2018-04-30T12:23:38.794Z,19.05
2018-04-30T12:24:38.755Z,18.83
2018-04-30T12:25:38.713Z,18.79
2018-04-30T12:26:38.670Z,18.93
2018-04-30T12:27:38.629Z,19.12
2018-04-30T12:28:38.596Z,19.32
2018-04-30T12:29:38.549Z,19.45
2018-04-30T12:30:38.505Z,19.32
2018-04-30T12:31:38.468Z,18.88
2018-04-30T12:32:38.428Z,18.68
2018-04-30T12:34:00.260Z,18.74
2018-04-30T12:35:00.198Z,19.01
2018-04-30T12:36:53.503Z,19.04
2018-04-30T12:37:53.452Z,19.07
2018-04-30T12:38:53.410Z,19.07
2018-04-30T12:39:53.371Z,19.08
2018-04-30T12:40:53.330Z,19.24
2018-04-30T12:41:53.292Z,19.50
2018-04-30T12:42:53.246Z,19.52
2018-04-30T12:43:53.205Z,19.53
2018-04-30T12:44:53.169Z,19.67
2018-04-30T12:45:53.124Z,19.64
2018-04-30T12:46:53.085Z,19.79
2018-04-30T12:47:53.043Z,19.86
2018-04-30T12:48:53.004Z,19.82
2018-04-30T12:49:53.058Z,19.79
2018-04-30T12:50:52.959Z,19.74
2018-04-30T12:51:52.877Z,19.59
2018-04-30T12:52:52.839Z,19.67
2018-04-30T12:53:52.798Z,19.77